Terminal Aerodrome Forecast
Issued by NWS Indianapolis, IN

Home | Current Version | Previous Version | Text Only | Print | Product List | Glossary On
Versions: 1 2 3 4 5 6 7 8 9 10 11 12 13 14 15 16 17 18 19 20 21 22 23 24 25 26 27 28
682
FTUS43 KIND 281422 AAA
TAFIND
TAF AMD
KIND 281422Z 2814/2918 21008KT P6SM BKN120
     FM281600 23012KT P6SM BKN060
     FM281800 24014KT P6SM VCTS BKN035CB
     FM282200 26014KT P6SM SHRA BKN080
      TEMPO 2822/2823 4SM TS OVC040CB
     FM282300 26013KT P6SM VCTS BKN080CB
     FM290000 26012KT P6SM VCTS SCT140CB
     FM290200 28007KT P6SM SCT250
     FM291400 25006KT P6SM FEW250=

USA.gov is the U.S. government's official web portal to all federal, state and local government web resources and services.